MPBO/BOC METAR and TAF weather

Enter ICAO airport designator
Station Type Date Time Source
MPBO METAR 2022/01/25 00:00 UTC NOAA

MPBO 250000Z 32002KT 9999 FEW018 SCT090 26/22 Q1010


Station Type Date Time Source
MPBO Decoded METAR 2022/01/25 00:00 UTC NOAA

Bocas Del Toro International, Panama (MPBO) 09-21N 082-15W
Jan 24, 2022 - 07:00 PM EST / 2022.01.25 0000 UTC
Wind: from the NW (320 degrees) at 2 MPH (2 KT):0
Visibility: greater than 7 mile(s):0
Sky conditions: partly cloudy
Temperature: 78 F (26 C)
Dew Point: 71 F (22 C)
Relative Humidity: 78%
Pressure (altimeter): 29.83 in. Hg (1010 hPa)
ob: MPBO 250000Z 32002KT 9999 FEW018 SCT090 26/22 Q1010
cycle: 0

Station Type Date Time Source
MPBO TAF 2011/07/19 06:30 UTC NOAA

TAF TAF MPBO 190500Z 1906/1918 00000KT 9999 FEW020
BECMG 1912/1916 30004KT 9000 SCT018 BKN100
TEMPO 1916/1918 FEW018CB

Example: see airport list